Time;durP1;ratioP1;P1;durP2;ratioP2;P2;SDS_P1;SDS_P2;PMS_P1;PMS_P2;Temp;Humidity;BMP_temperature;BMP_pressure;BME280_temperature;BME280_humidity;BME280_pressure;Samples;Min_cycle;Max_cycle;Signal;HPM_P1;HPM_P2
2023/09/22 00:00:11;;;;;;;6.63;2.60;;;17.90;99.90;;;;;;5024184;28;20084;-74
2023/09/22 00:02:57;;;;;;;4.38;2.20;;;17.70;99.90;;;;;;4982515;28;20045;-74
2023/09/22 00:05:44;;;;;;;4.20;2.15;;;17.70;99.90;;;;;;5002642;28;20801;-74
2023/09/22 00:08:30;;;;;;;5.57;2.00;;;17.70;99.90;;;;;;5003464;28;20107;-74
2023/09/22 00:11:16;;;;;;;6.03;2.20;;;17.70;99.90;;;;;;5016906;28;20041;-74
2023/09/22 00:14:03;;;;;;;5.22;2.30;;;17.60;99.90;;;;;;5014230;28;20399;-74
2023/09/22 00:16:49;;;;;;;3.15;1.60;;;17.50;99.90;;;;;;4998492;28;20058;-74
2023/09/22 00:19:35;;;;;;;1.63;1.05;;;17.50;99.90;;;;;;5013583;28;20068;-74
2023/09/22 00:22:22;;;;;;;3.30;1.70;;;17.40;99.90;;;;;;5014000;28;20038;-74
2023/09/22 00:25:13;;;;;;;3.03;1.40;;;17.40;99.90;;;;;;5019696;28;20076;-74
2023/09/22 00:27:59;;;;;;;2.72;1.38;;;17.40;99.90;;;;;;4991085;28;20045;-74
2023/09/22 00:30:45;;;;;;;3.47;1.33;;;17.40;99.90;;;;;;4998494;28;20104;-74
2023/09/22 00:33:31;;;;;;;2.83;1.50;;;17.20;99.90;;;;;;5025557;28;20041;-74
2023/09/22 00:36:17;;;;;;;2.35;1.20;;;17.20;99.90;;;;;;5046694;28;20037;-75
2023/09/22 00:39:04;;;;;;;2.55;1.20;;;17.10;99.90;;;;;;5031181;28;20055;-74
2023/09/22 00:41:50;;;;;;;1.60;1.17;;;17.10;99.90;;;;;;5016755;28;20399;-74
2023/09/22 00:44:36;;;;;;;2.45;1.25;;;17.10;99.90;;;;;;4996905;28;20046;-75
2023/09/22 00:47:22;;;;;;;2.08;1.10;;;17.10;99.90;;;;;;5014999;28;20180;-74
2023/09/22 00:50:11;;;;;;;1.90;1.02;;;16.90;99.90;;;;;;4979497;28;20041;-75
2023/09/22 00:52:57;;;;;;;2.67;1.15;;;16.90;99.90;;;;;;5024598;28;20073;-74
2023/09/22 00:55:45;;;;;;;1.98;1.15;;;16.90;99.90;;;;;;5019194;28;20053;-74
2023/09/22 00:58:32;;;;;;;2.50;1.10;;;16.80;99.90;;;;;;5019872;28;20041;-74
2023/09/22 01:01:21;;;;;;;2.00;1.07;;;16.80;99.90;;;;;;5035681;28;20041;-74
2023/09/22 01:04:07;;;;;;;3.15;1.00;;;16.70;99.90;;;;;;4998034;28;20709;-74
2023/09/22 01:06:53;;;;;;;2.58;1.08;;;16.70;99.90;;;;;;5021314;28;20124;-75
2023/09/22 01:09:41;;;;;;;2.50;1.08;;;16.70;99.90;;;;;;5015749;28;20428;-75
2023/09/22 01:12:27;;;;;;;2.97;1.60;;;16.70;99.90;;;;;;5011362;28;20447;-74
2023/09/22 01:15:13;;;;;;;1.98;1.10;;;16.70;99.90;;;;;;5030766;28;20428;-74
2023/09/22 01:17:59;;;;;;;2.63;1.17;;;16.70;99.90;;;;;;5017491;28;20049;-74
2023/09/22 01:20:45;;;;;;;2.40;1.38;;;16.60;99.90;;;;;;5025124;28;20423;-75
2023/09/22 01:23:31;;;;;;;2.13;1.10;;;16.60;99.90;;;;;;5016721;28;20102;-74
2023/09/22 01:26:17;;;;;;;2.67;1.00;;;16.50;99.90;;;;;;5025558;28;20041;-75
2023/09/22 01:29:04;;;;;;;4.10;1.10;;;16.50;99.90;;;;;;5005245;28;20363;-75
2023/09/22 01:31:50;;;;;;;1.73;1.00;;;16.40;99.90;;;;;;5005228;28;20835;-74
2023/09/22 01:34:36;;;;;;;2.88;1.25;;;16.50;99.90;;;;;;5028787;28;20529;-74
2023/09/22 01:37:26;;;;;;;4.50;1.63;;;16.40;99.90;;;;;;5023052;28;20059;-74
2023/09/22 01:40:14;;;;;;;5.53;1.30;;;16.40;99.90;;;;;;5010454;28;20121;-74
2023/09/22 01:42:59;;;;;;;1.88;1.08;;;16.40;99.90;;;;;;5047698;28;20048;-75
2023/09/22 01:45:45;;;;;;;3.08;1.95;;;16.40;99.90;;;;;;4998543;28;20113;-74
2023/09/22 01:48:31;;;;;;;1.60;1.02;;;16.40;99.90;;;;;;4999762;28;20049;-74
2023/09/22 01:51:17;;;;;;;4.07;1.00;;;16.30;99.90;;;;;;5007922;28;20099;-74
2023/09/22 01:54:04;;;;;;;2.92;1.10;;;16.40;99.90;;;;;;5034690;28;20175;-74
2023/09/22 01:56:49;;;;;;;2.10;1.02;;;16.40;99.90;;;;;;4996953;28;20037;-75
2023/09/22 01:59:35;;;;;;;3.20;1.10;;;16.40;99.90;;;;;;5023129;28;20040;-75
2023/09/22 02:02:21;;;;;;;2.33;1.00;;;16.40;99.90;;;;;;5005877;28;20476;-74
2023/09/22 02:05:09;;;;;;;3.67;1.00;;;16.40;99.90;;;;;;4997757;28;20099;-75
2023/09/22 02:07:57;;;;;;;3.35;1.40;;;16.40;99.90;;;;;;5012544;28;20073;-74
2023/09/22 02:10:43;;;;;;;1.63;1.00;;;16.40;99.90;;;;;;5017328;28;20132;-75
2023/09/22 02:13:29;;;;;;;2.35;1.17;;;16.50;99.90;;;;;;5033635;28;20045;-74
2023/09/22 02:16:15;;;;;;;2.10;1.00;;;16.50;99.90;;;;;;5014023;28;20044;-74
2023/09/22 02:19:01;;;;;;;2.00;0.93;;;16.50;99.90;;;;;;5005858;28;20517;-75
2023/09/22 02:21:47;;;;;;;1.42;0.88;;;16.30;99.90;;;;;;4994334;28;20120;-75
2023/09/22 02:24:32;;;;;;;3.17;1.33;;;16.40;99.90;;;;;;5016377;28;20046;-75
2023/09/22 02:27:18;;;;;;;3.08;1.17;;;16.40;99.90;;;;;;5003877;28;20703;-77
2023/09/22 02:30:05;;;;;;;2.78;1.23;;;16.40;99.90;;;;;;5041303;28;20063;-77
2023/09/22 02:32:51;;;;;;;3.08;1.23;;;16.30;99.90;;;;;;5040909;28;20128;-77
2023/09/22 02:35:40;;;;;;;1.90;1.10;;;16.40;99.90;;;;;;5039325;28;20478;-77
2023/09/22 02:38:28;;;;;;;2.40;1.20;;;16.40;99.90;;;;;;4996464;28;20382;-76
2023/09/22 02:41:14;;;;;;;2.28;1.20;;;16.20;99.90;;;;;;5008614;28;20048;-76
2023/09/22 02:44:00;;;;;;;2.90;1.10;;;16.30;99.90;;;;;;4977649;28;20038;-76
2023/09/22 02:46:46;;;;;;;2.97;1.00;;;16.30;99.90;;;;;;5037045;28;20038;-76
2023/09/22 02:49:32;;;;;;;3.45;1.02;;;16.20;99.90;;;;;;5008968;28;20041;-76
2023/09/22 02:52:18;;;;;;;3.35;1.15;;;16.20;99.90;;;;;;5034538;28;20124;-76
2023/09/22 02:55:07;;;;;;;3.25;1.08;;;16.30;99.90;;;;;;5002239;28;20084;-76
2023/09/22 02:57:54;;;;;;;1.60;1.08;;;16.20;99.90;;;;;;4998795;28;20049;-77
2023/09/22 03:00:43;;;;;;;4.03;1.13;;;16.30;99.90;;;;;;5017570;28;20152;-77
2023/09/22 03:03:31;;;;;;;2.90;0.85;;;16.30;99.90;;;;;;4998486;28;20128;-76
2023/09/22 03:06:18;;;;;;;2.88;1.30;;;16.30;99.90;;;;;;5036356;28;20056;-76
2023/09/22 03:09:06;;;;;;;1.83;1.00;;;16.30;99.90;;;;;;4993347;28;20109;-76
2023/09/22 03:11:52;;;;;;;;;;;16.30;99.90;;;;;;4991719;28;20125;-77
2023/09/22 03:14:38;;;;;;;2.60;1.08;;;16.30;99.90;;;;;;5001760;28;19993;-76
2023/09/22 03:17:24;;;;;;;2.58;1.40;;;16.30;99.90;;;;;;5008269;28;20060;-76
2023/09/22 03:20:13;;;;;;;2.47;1.33;;;16.30;99.90;;;;;;5043626;28;20064;-77
2023/09/22 03:22:58;;;;;;;2.03;0.90;;;16.30;99.90;;;;;;5008026;28;20073;-76
2023/09/22 03:25:44;;;;;;;4.07;1.17;;;16.40;99.90;;;;;;4991490;28;20069;-76
2023/09/22 03:28:30;;;;;;;2.72;1.00;;;16.30;99.90;;;;;;5008634;28;20038;-76
2023/09/22 03:31:16;;;;;;;1.90;0.93;;;16.30;99.90;;;;;;5008342;28;20037;-76
2023/09/22 03:34:02;;;;;;;1.67;0.93;;;16.30;99.90;;;;;;5010054;28;20537;-76
2023/09/22 03:36:49;;;;;;;1.77;0.90;;;16.30;99.90;;;;;;5007474;28;20056;-76
2023/09/22 03:39:35;;;;;;;2.92;1.38;;;16.30;99.90;;;;;;4994715;28;20046;-76
2023/09/22 03:42:22;;;;;;;1.75;0.98;;;16.30;99.90;;;;;;5023847;28;20030;-76
2023/09/22 03:45:09;;;;;;;2.33;1.15;;;16.30;99.90;;;;;;4988291;28;20056;-76
2023/09/22 03:47:54;;;;;;;2.45;1.10;;;16.30;99.90;;;;;;5001175;28;20088;-75
2023/09/22 03:50:40;;;;;;;2.05;0.88;;;16.30;99.90;;;;;;5004687;28;20406;-75
2023/09/22 03:53:28;;;;;;;3.38;1.25;;;16.30;99.90;;;;;;5013683;28;20041;-75
2023/09/22 03:56:14;;;;;;;2.40;1.17;;;16.20;99.90;;;;;;5021665;28;20045;-74
2023/09/22 03:59:00;;;;;;;3.55;1.20;;;16.20;99.90;;;;;;5034016;28;20050;-75
2023/09/22 04:01:46;;;;;;;2.10;1.08;;;16.20;99.90;;;;;;5001219;28;20041;-74
2023/09/22 04:04:32;;;;;;;3.47;1.00;;;16.10;99.90;;;;;;5000135;28;20034;-75
2023/09/22 04:07:18;;;;;;;2.55;1.10;;;16.20;99.90;;;;;;4998883;28;20041;-74
2023/09/22 04:10:04;;;;;;;2.10;1.00;;;16.20;99.90;;;;;;5021005;28;20048;-75
2023/09/22 04:12:50;;;;;;;2.72;1.02;;;16.20;99.90;;;;;;5012302;28;20509;-74
2023/09/22 04:15:36;;;;;;;1.95;1.00;;;16.20;99.90;;;;;;5032940;28;20099;-75
2023/09/22 04:18:22;;;;;;;2.33;1.17;;;16.20;99.90;;;;;;5017220;28;20092;-75
2023/09/22 04:21:09;;;;;;;2.10;1.05;;;16.20;99.90;;;;;;5031587;28;20458;-75
2023/09/22 04:23:57;;;;;;;3.63;1.10;;;16.20;99.90;;;;;;5045984;28;20037;-74
2023/09/22 04:26:43;;;;;;;4.43;1.17;;;16.20;99.90;;;;;;5012263;28;20034;-74
2023/09/22 04:29:30;;;;;;;3.25;1.20;;;16.10;99.90;;;;;;4999061;28;20058;-75
2023/09/22 04:32:18;;;;;;;2.65;1.08;;;16.10;99.90;;;;;;5010774;28;20069;-75
2023/09/22 04:35:07;;;;;;;2.10;1.10;;;16.10;99.90;;;;;;5032009;28;20041;-75
2023/09/22 04:37:53;;;;;;;2.05;1.00;;;16.00;99.90;;;;;;5031924;28;20048;-75
2023/09/22 04:40:39;;;;;;;1.65;0.90;;;16.10;99.90;;;;;;5026763;28;20084;-75
2023/09/22 04:43:25;;;;;;;3.35;1.30;;;16.10;99.90;;;;;;5037732;28;20065;-75
2023/09/22 04:46:11;;;;;;;2.10;0.93;;;16.10;99.90;;;;;;5034090;28;20041;-74
2023/09/22 04:48:57;;;;;;;7.05;1.38;;;16.00;99.90;;;;;;5032820;28;20037;-73
2023/09/22 04:51:43;;;;;;;3.42;1.40;;;15.90;99.90;;;;;;5032891;28;20038;-74
2023/09/22 04:54:30;;;;;;;2.78;1.58;;;16.00;99.90;;;;;;4997538;28;20141;-73
2023/09/22 04:57:17;;;;;;;4.75;1.65;;;16.00;99.90;;;;;;5013789;28;20056;-73
2023/09/22 05:00:13;;;;;;;3.55;1.70;;;15.90;99.90;;;;;;5035080;28;20032;-73
2023/09/22 05:03:06;;;;;;;4.63;2.10;;;15.90;99.90;;;;;;5026258;28;20037;-73
2023/09/22 05:05:53;;;;;;;3.25;1.35;;;15.90;99.90;;;;;;5008176;28;20037;-73
2023/09/22 05:08:41;;;;;;;2.88;1.45;;;16.00;99.90;;;;;;5018865;28;20083;-74
2023/09/22 05:11:27;;;;;;;3.97;1.70;;;16.00;99.90;;;;;;5033934;28;20041;-73
2023/09/22 05:14:14;;;;;;;4.07;1.52;;;16.00;99.90;;;;;;5015476;28;20044;-73
2023/09/22 05:17:00;;;;;;;4.32;1.33;;;15.90;99.90;;;;;;5035795;28;20052;-73
2023/09/22 05:19:46;;;;;;;3.35;1.60;;;15.90;99.90;;;;;;5038025;28;20495;-73
2023/09/22 05:22:32;;;;;;;3.08;1.35;;;15.90;99.90;;;;;;5036192;28;20041;-73
2023/09/22 05:25:18;;;;;;;4.93;1.65;;;15.80;99.90;;;;;;5015463;28;20038;-74
2023/09/22 05:28:05;;;;;;;2.40;1.13;;;15.80;99.90;;;;;;5023173;28;20838;-74
2023/09/22 05:30:51;;;;;;;4.43;2.00;;;15.80;99.90;;;;;;5007268;28;20038;-74
2023/09/22 05:33:37;;;;;;;3.38;1.67;;;15.70;99.90;;;;;;5024138;28;20049;-73
2023/09/22 05:36:24;;;;;;;4.82;1.23;;;15.70;99.90;;;;;;5027070;28;20041;-73
2023/09/22 05:39:10;;;;;;;4.27;1.47;;;15.70;99.90;;;;;;5025993;28;20052;-73
2023/09/22 05:41:56;;;;;;;3.95;1.40;;;15.60;99.90;;;;;;5006953;28;20041;-73
2023/09/22 05:44:46;;;;;;;3.22;1.58;;;15.70;99.90;;;;;;5037881;28;20036;-73
2023/09/22 05:47:34;;;;;;;3.95;1.60;;;15.50;99.90;;;;;;5031115;28;20839;-73
2023/09/22 05:50:23;;;;;;;5.13;1.73;;;15.50;99.90;;;;;;5031668;28;20750;-73
2023/09/22 05:53:09;;;;;;;;;;;15.50;99.90;;;;;;5003978;28;20046;-73
2023/09/22 05:56:08;;;;;;;2.58;1.40;;;15.50;99.90;;;;;;5012595;28;20562;-73
2023/09/22 05:58:55;;;;;;;2.92;1.30;;;15.50;99.90;;;;;;5010254;28;20525;-73
2023/09/22 06:01:41;;;;;;;3.05;0.80;;;15.50;99.90;;;;;;5029311;28;20045;-74
2023/09/22 06:04:29;;;;;;;2.90;1.10;;;15.50;99.90;;;;;;5005389;28;20124;-73
2023/09/22 06:07:15;;;;;;;2.65;1.30;;;15.50;99.90;;;;;;5032042;28;20461;-73
2023/09/22 06:10:05;;;;;;;4.97;1.40;;;15.50;99.90;;;;;;5007765;28;20045;-73
2023/09/22 06:12:51;;;;;;;3.40;1.38;;;15.40;99.90;;;;;;5013623;28;20079;-73
2023/09/22 06:15:37;;;;;;;5.93;1.00;;;15.40;99.90;;;;;;5041603;28;20044;-74
2023/09/22 06:18:24;;;;;;;2.35;1.15;;;15.50;99.90;;;;;;5023599;28;20049;-74
2023/09/22 06:21:10;;;;;;;2.08;1.10;;;15.50;99.90;;;;;;5031451;28;20116;-73
2023/09/22 06:23:57;;;;;;;2.22;1.00;;;15.50;99.90;;;;;;5021734;28;20122;-73
2023/09/22 06:26:43;;;;;;;3.00;1.30;;;15.50;99.90;;;;;;5035008;28;20048;-73
2023/09/22 06:29:29;;;;;;;3.38;1.23;;;15.60;99.90;;;;;;5035896;28;20556;-74
2023/09/22 06:32:15;;;;;;;3.67;1.27;;;15.60;99.90;;;;;;5035558;28;20482;-73
2023/09/22 06:35:00;;;;;;;2.40;1.15;;;15.50;99.90;;;;;;5014541;28;20036;-73
2023/09/22 06:37:46;;;;;;;4.45;1.38;;;15.40;99.90;;;;;;5023422;28;20053;-73
2023/09/22 06:40:36;;;;;;;4.05;1.20;;;15.40;99.90;;;;;;5038887;28;20041;-73
2023/09/22 06:43:25;;;;;;;2.20;1.30;;;15.40;99.90;;;;;;5037870;28;20036;-73
2023/09/22 06:46:11;;;;;;;5.57;1.27;;;15.40;99.90;;;;;;5010738;28;20037;-73
2023/09/22 06:48:57;;;;;;;2.40;1.15;;;15.40;99.90;;;;;;5040679;28;20048;-73
2023/09/22 06:51:43;;;;;;;3.97;1.70;;;15.50;99.90;;;;;;5025824;28;20145;-73
2023/09/22 06:54:29;;;;;;;4.20;1.23;;;15.50;99.90;;;;;;5045380;28;20049;-74
2023/09/22 06:57:16;;;;;;;4.18;1.52;;;15.50;99.90;;;;;;5015248;28;20422;-73
2023/09/22 07:00:15;;;;;;;6.32;1.10;;;15.50;99.90;;;;;;5016082;28;20099;-73
2023/09/22 07:03:01;;;;;;;3.40;1.27;;;15.50;99.90;;;;;;5007592;28;20354;-73
2023/09/22 07:05:46;;;;;;;4.97;1.30;;;15.50;99.90;;;;;;5026245;28;20099;-73
2023/09/22 07:08:34;;;;;;;3.40;1.20;;;15.50;99.90;;;;;;5043884;28;20095;-74
2023/09/22 07:11:20;;;;;;;2.27;1.10;;;15.50;99.90;;;;;;5022086;28;20068;-73
2023/09/22 07:14:09;;;;;;;4.18;1.20;;;15.50;99.90;;;;;;5041774;28;20155;-74
2023/09/22 07:16:55;;;;;;;3.20;1.10;;;15.50;99.90;;;;;;5034757;28;20786;-73
2023/09/22 07:19:41;;;;;;;2.47;1.23;;;15.50;99.90;;;;;;5024907;28;20063;-73
2023/09/22 07:22:30;;;;;;;1.65;1.10;;;15.50;99.90;;;;;;5028719;28;20041;-74
2023/09/22 07:25:16;;;;;;;4.97;1.50;;;15.50;99.90;;;;;;5021307;28;20076;-73
2023/09/22 07:28:03;;;;;;;2.90;1.40;;;15.60;99.90;;;;;;5017482;28;20769;-73
2023/09/22 07:30:49;;;;;;;3.88;1.52;;;15.50;99.90;;;;;;5017422;28;20045;-73
2023/09/22 07:33:35;;;;;;;4.32;1.27;;;15.50;99.90;;;;;;4999462;28;20044;-75
2023/09/22 07:36:21;;;;;;;4.05;1.38;;;15.50;99.90;;;;;;5039735;28;20036;-75
2023/09/22 07:39:09;;;;;;;2.78;1.10;;;15.60;99.90;;;;;;5020080;28;20045;-75
2023/09/22 07:41:55;;;;;;;;;;;15.70;99.90;;;;;;5053583;28;20111;-75
2023/09/22 07:44:41;;;;;;;3.38;2.20;;;15.70;99.90;;;;;;5025133;28;20004;-75
2023/09/22 07:47:27;;;;;;;3.03;1.10;;;15.70;99.90;;;;;;5021681;28;20425;-74
2023/09/22 07:50:14;;;;;;;4.25;1.30;;;15.80;99.90;;;;;;5032927;28;20036;-75
2023/09/22 07:53:01;;;;;;;4.03;0.90;;;15.80;99.90;;;;;;5038252;28;20191;-75
2023/09/22 07:55:47;;;;;;;2.33;1.23;;;15.80;99.90;;;;;;5035216;28;20081;-75
2023/09/22 07:58:33;;;;;;;2.10;1.00;;;15.90;99.90;;;;;;5011247;28;20055;-75
2023/09/22 08:01:19;;;;;;;3.35;1.45;;;15.90;99.90;;;;;;4992296;28;20045;-75
2023/09/22 08:04:08;;;;;;;4.75;1.35;;;16.00;99.90;;;;;;5011294;28;20037;-74
2023/09/22 08:06:55;;;;;;;4.03;1.02;;;16.00;99.90;;;;;;5000368;28;20107;-75
2023/09/22 08:09:41;;;;;;;3.92;1.20;;;16.00;99.90;;;;;;5010324;28;20522;-75
2023/09/22 08:12:28;;;;;;;2.88;1.00;;;16.10;99.90;;;;;;5004574;28;20654;-75
2023/09/22 08:15:14;;;;;;;4.68;1.20;;;16.10;99.90;;;;;;5014471;28;20045;-75
2023/09/22 08:18:02;;;;;;;3.38;1.60;;;16.10;99.90;;;;;;4994611;28;20037;-75
2023/09/22 08:20:48;;;;;;;2.08;1.30;;;16.10;99.90;;;;;;4987742;28;20655;-75
2023/09/22 08:23:34;;;;;;;3.65;1.30;;;16.10;99.90;;;;;;4994243;28;20033;-76
2023/09/22 08:26:23;;;;;;;2.72;0.95;;;16.10;99.90;;;;;;5003228;28;20091;-75
2023/09/22 08:29:09;;;;;;;1.92;1.08;;;15.90;99.90;;;;;;5014307;28;20458;-75
2023/09/22 08:31:56;;;;;;;3.10;1.08;;;15.80;99.90;;;;;;5019603;28;20128;-75
2023/09/22 08:34:42;;;;;;;2.17;1.23;;;15.90;99.90;;;;;;4991312;28;20052;-75
2023/09/22 08:37:28;;;;;;;3.90;1.20;;;15.90;99.90;;;;;;5000005;28;20893;-75
2023/09/22 08:40:15;;;;;;;2.45;1.10;;;16.00;99.90;;;;;;5007583;28;20056;-75
2023/09/22 08:43:02;;;;;;;2.53;1.00;;;16.00;99.90;;;;;;5019513;28;20080;-75
2023/09/22 08:45:48;;;;;;;3.00;1.10;;;16.00;99.90;;;;;;4976564;28;20050;-75
2023/09/22 08:48:34;;;;;;;2.20;0.95;;;15.90;99.90;;;;;;4991088;28;20374;-75
2023/09/22 08:51:22;;;;;;;4.35;0.93;;;15.90;99.90;;;;;;4979283;28;20061;-74
2023/09/22 08:54:10;;;;;;;4.50;1.02;;;15.90;99.90;;;;;;5028601;28;20041;-74
2023/09/22 08:56:56;;;;;;;3.08;0.88;;;16.00;99.90;;;;;;4986277;28;20059;-75
2023/09/22 08:59:43;;;;;;;3.33;1.23;;;16.00;99.90;;;;;;4979168;28;20042;-75
2023/09/22 09:02:29;;;;;;;3.00;1.10;;;16.00;99.90;;;;;;5001970;28;20376;-75
2023/09/22 09:05:28;;;;;;;3.28;1.67;;;16.00;99.90;;;;;;5018523;28;20037;-75
2023/09/22 09:08:22;;;;;;;2.60;1.13;;;16.10;99.90;;;;;;5044286;28;20041;-75
2023/09/22 09:11:10;;;;;;;4.47;1.30;;;16.10;99.90;;;;;;5008651;28;20045;-75
2023/09/22 09:13:56;;;;;;;3.53;1.20;;;16.10;99.90;;;;;;4998366;28;20538;-76
2023/09/22 09:16:42;;;;;;;5.55;1.60;;;16.20;99.90;;;;;;4999080;28;20088;-76
2023/09/22 09:19:30;;;;;;;5.25;1.45;;;16.30;99.90;;;;;;5006208;28;20091;-75
2023/09/22 09:22:16;;;;;;;4.22;1.85;;;16.30;99.90;;;;;;5010517;28;20371;-76
2023/09/22 09:25:02;;;;;;;2.53;1.50;;;16.40;99.90;;;;;;5005983;28;20493;-76
2023/09/22 09:28:00;;;;;;;3.55;1.60;;;16.40;99.90;;;;;;5010724;28;20053;-75
2023/09/22 09:30:56;;;;;;;8.85;2.30;;;16.30;99.90;;;;;;5001723;28;20540;-75
2023/09/22 09:33:54;;;;;;;5.75;1.83;;;16.30;99.90;;;;;;5006944;28;20072;-76
2023/09/22 09:36:40;;;;;;;3.83;1.40;;;16.40;99.90;;;;;;5030120;28;20044;-76
2023/09/22 09:39:44;;;;;;;5.07;2.10;;;16.40;99.90;;;;;;5010240;28;20049;-76
2023/09/22 09:42:31;;;;;;;5.50;1.52;;;16.40;99.90;;;;;;5030388;28;20339;-75
2023/09/22 09:45:18;;;;;;;5.85;1.67;;;16.50;99.90;;;;;;5031019;28;20033;-76
2023/09/22 09:48:04;;;;;;;5.07;1.52;;;16.50;99.90;;;;;;5005970;28;20037;-75
2023/09/22 09:50:54;;;;;;;6.40;1.52;;;16.50;99.90;;;;;;5018758;28;20369;-75
2023/09/22 09:53:43;;;;;;;4.63;1.33;;;16.50;99.90;;;;;;5043648;28;20385;-76
2023/09/22 09:56:29;;;;;;;3.83;1.40;;;16.60;99.90;;;;;;5021020;28;20082;-76
2023/09/22 09:59:15;;;;;;;4.75;1.48;;;16.70;99.90;;;;;;5035901;28;20047;-76
2023/09/22 10:02:01;;;;;;;7.30;1.50;;;16.90;99.90;;;;;;5022437;28;20041;-75
2023/09/22 10:04:49;;;;;;;3.75;1.20;;;17.10;99.90;;;;;;5016680;28;20029;-75
2023/09/22 10:07:36;;;;;;;3.85;1.00;;;17.30;99.90;;;;;;5020111;28;20355;-75
2023/09/22 10:10:22;;;;;;;3.60;1.20;;;17.30;99.90;;;;;;5035476;28;20047;-76
2023/09/22 10:13:08;;;;;;;3.75;1.35;;;17.20;99.90;;;;;;5008996;28;20288;-75
2023/09/22 10:15:58;;;;;;;4.60;1.20;;;17.10;99.90;;;;;;4986259;28;20042;-76
2023/09/22 10:18:52;;;;;;;3.20;1.10;;;16.90;99.90;;;;;;4992581;28;20573;-76
2023/09/22 10:21:41;;;;;;;2.78;1.40;;;16.90;99.90;;;;;;5008077;28;20034;-75
2023/09/22 10:24:32;;;;;;;5.35;1.40;;;16.90;99.90;;;;;;4970381;28;20133;-75
2023/09/22 10:27:18;;;;;;;5.88;1.33;;;16.80;99.90;;;;;;5004459;28;20070;-75
2023/09/22 10:30:07;;;;;;;3.08;1.05;;;16.70;99.90;;;;;;4998929;28;20045;-75
2023/09/22 10:33:15;;;;;;;6.63;1.10;;;16.70;99.90;;;;;;4968198;28;20039;-75
2023/09/22 10:36:04;;;;;;;3.67;1.30;;;16.70;99.90;;;;;;5009572;28;20046;-75
2023/09/22 10:38:53;;;;;;;4.07;1.33;;;16.80;99.90;;;;;;4990132;28;20076;-76
2023/09/22 10:42:00;;;;;;;3.50;1.20;;;17.00;99.90;;;;;;4970487;28;20046;-76
2023/09/22 10:45:03;;;;;;;3.53;1.20;;;17.50;99.90;;;;;;4980191;28;20038;-76
2023/09/22 10:47:55;;;;;;;1.83;0.85;;;18.10;99.90;;;;;;5022162;28;20298;-75
2023/09/22 10:50:43;;;;;;;4.05;0.90;;;18.30;99.90;;;;;;5003249;28;20502;-76
2023/09/22 10:53:32;;;;;;;3.27;1.40;;;18.40;99.90;;;;;;5009750;28;20416;-76
2023/09/22 10:56:18;;;;;;;3.28;1.42;;;18.60;99.90;;;;;;4995565;28;20080;-76
2023/09/22 10:59:05;;;;;;;2.38;0.98;;;18.60;99.90;;;;;;4993521;28;20042;-75
2023/09/22 11:01:52;;;;;;;2.65;1.10;;;18.70;99.90;;;;;;4976612;28;20618;-76
2023/09/22 11:04:42;;;;;;;3.50;1.10;;;18.70;99.90;;;;;;4976755;28;20047;-76
2023/09/22 11:07:32;;;;;;;3.97;1.10;;;18.70;99.90;;;;;;4975335;28;20046;-76
2023/09/22 11:10:20;;;;;;;5.28;1.15;;;18.80;99.90;;;;;;4964001;28;20586;-76
2023/09/22 11:13:07;;;;;;;5.13;1.48;;;18.90;99.90;;;;;;4994831;28;20335;-75
2023/09/22 11:15:56;;;;;;;7.07;1.33;;;19.20;99.90;;;;;;4990928;28;20046;-76
2023/09/22 11:18:42;;;;;;;5.10;1.20;;;19.20;99.90;;;;;;4973640;28;20054;-76
2023/09/22 11:21:40;;;;;;;5.18;1.10;;;19.40;99.90;;;;;;4983665;28;20034;-75
2023/09/22 11:24:27;;;;;;;2.78;0.82;;;19.60;99.90;;;;;;4994545;28;20072;-74
2023/09/22 11:27:13;;;;;;;1.77;0.80;;;19.50;99.90;;;;;;5024490;28;20038;-74
2023/09/22 11:30:20;;;;;;;2.55;1.23;;;19.20;99.90;;;;;;4994002;28;20049;-74
2023/09/22 11:33:13;;;;;;;3.22;1.00;;;19.10;99.90;;;;;;4999874;28;20041;-74
2023/09/22 11:35:59;;;;;;;2.50;1.17;;;18.90;99.90;;;;;;4988313;28;20053;-74
2023/09/22 11:38:52;;;;;;;4.68;1.50;;;18.60;99.90;;;;;;4987802;28;20042;-73
2023/09/22 11:41:38;;;;;;;4.63;1.30;;;18.60;99.90;;;;;;4964937;28;20472;-74
2023/09/22 11:44:24;;;;;;;3.42;1.40;;;18.80;99.90;;;;;;5002641;28;20053;-74
2023/09/22 11:47:21;;;;;;;2.53;0.90;;;19.00;99.90;;;;;;4980817;28;20097;-74
2023/09/22 11:50:07;;;;;;;5.07;1.08;;;19.00;99.90;;;;;;4963571;28;20124;-74
2023/09/22 11:53:17;;;;;;;4.10;1.45;;;19.00;99.90;;;;;;4976759;28;20050;-75
2023/09/22 11:56:03;;;;;;;1.58;0.68;;;19.00;99.90;;;;;;4993257;28;20038;-74
2023/09/22 11:58:50;;;;;;;2.50;0.90;;;18.90;99.90;;;;;;4984165;28;20049;-74
2023/09/22 12:01:36;;;;;;;3.03;1.13;;;18.70;99.90;;;;;;5014219;28;20072;-74
2023/09/22 12:04:22;;;;;;;1.80;0.88;;;18.70;99.90;;;;;;4976027;28;20108;-74
2023/09/22 12:07:08;;;;;;;2.50;0.70;;;18.60;99.90;;;;;;5013517;28;20041;-74
2023/09/22 12:09:55;;;;;;;3.30;0.90;;;18.50;99.90;;;;;;5000599;28;20463;-74
2023/09/22 12:12:41;;;;;;;1.63;0.80;;;18.40;99.90;;;;;;4980867;28;20038;-74
2023/09/22 12:15:26;;;;;;;1.67;0.68;;;18.50;99.90;;;;;;4993158;28;20070;-74
2023/09/22 12:18:15;;;;;;;2.30;0.80;;;18.50;99.90;;;;;;4998027;28;20050;-74
2023/09/22 12:21:02;;;;;;;2.33;0.90;;;18.40;99.90;;;;;;5018147;28;20068;-75
2023/09/22 12:23:48;;;;;;;2.80;0.70;;;18.40;99.90;;;;;;5018782;28;20381;-75
2023/09/22 12:26:33;;;;;;;2.20;0.80;;;18.40;99.90;;;;;;5012553;28;20033;-75
2023/09/22 12:29:20;;;;;;;3.40;0.85;;;18.40;99.90;;;;;;5013104;28;20053;-75
2023/09/22 12:32:07;;;;;;;4.45;1.00;;;18.50;99.90;;;;;;5024698;28;20036;-75
2023/09/22 12:34:54;;;;;;;2.55;0.82;;;18.60;99.90;;;;;;5053469;28;20574;-75
2023/09/22 12:37:40;;;;;;;3.08;0.70;;;18.70;99.90;;;;;;5032673;28;20091;-75
2023/09/22 12:40:27;;;;;;;4.07;0.75;;;18.60;99.90;;;;;;4996278;28;20049;-75
2023/09/22 12:43:13;;;;;;;1.30;0.80;;;18.60;99.90;;;;;;5000881;28;20033;-74
2023/09/22 12:45:59;;;;;;;1.83;0.80;;;18.50;99.90;;;;;;5006649;28;20072;-75
2023/09/22 12:48:45;;;;;;;2.47;0.90;;;18.50;99.90;;;;;;5017668;28;20045;-74
2023/09/22 12:51:31;;;;;;;2.45;0.80;;;18.40;99.90;;;;;;4984906;28;20161;-74
2023/09/22 12:54:17;;;;;;;3.42;0.80;;;18.50;99.90;;;;;;4994422;28;20686;-75
2023/09/22 12:57:03;;;;;;;2.22;0.90;;;18.50;99.90;;;;;;5019987;28;20441;-75
2023/09/22 12:59:49;;;;;;;3.28;0.80;;;18.60;99.90;;;;;;4999620;28;20146;-74
2023/09/22 13:02:35;;;;;;;4.25;1.08;;;18.60;99.90;;;;;;5018090;28;20040;-75
2023/09/22 13:05:21;;;;;;;4.22;0.90;;;18.70;99.90;;;;;;5006784;28;20038;-75
2023/09/22 13:08:07;;;;;;;2.33;0.90;;;18.70;99.90;;;;;;5010187;28;20051;-75
2023/09/22 13:10:53;;;;;;;2.13;0.70;;;18.80;99.90;;;;;;4999836;28;20042;-75
2023/09/22 13:13:39;;;;;;;2.80;1.05;;;18.70;99.90;;;;;;5009006;28;20132;-75
2023/09/22 13:16:25;;;;;;;3.42;0.75;;;18.70;99.90;;;;;;5027162;28;20452;-75
2023/09/22 13:19:11;;;;;;;2.92;1.02;;;18.70;99.90;;;;;;5033182;28;20054;-76
2023/09/22 13:21:57;;;;;;;2.05;0.60;;;18.90;99.90;;;;;;5033561;28;20447;-75
2023/09/22 13:24:46;;;;;;;2.47;0.90;;;18.80;99.90;;;;;;4972750;28;20042;-76
2023/09/22 13:27:32;;;;;;;2.22;0.80;;;19.10;99.90;;;;;;4992201;28;20075;-76
2023/09/22 13:30:20;;;;;;;4.18;1.10;;;19.40;99.90;;;;;;4997852;28;20045;-75
2023/09/22 13:33:06;;;;;;;3.90;0.80;;;20.00;99.40;;;;;;5035969;28;20048;-76
2023/09/22 13:35:52;;;;;;;4.35;1.10;;;20.40;99.00;;;;;;5036686;28;20053;-76
2023/09/22 13:38:38;;;;;;;4.65;1.10;;;20.50;99.00;;;;;;5048611;28;20123;-75
2023/09/22 13:41:24;;;;;;;4.13;0.98;;;20.50;99.10;;;;;;5036549;28;20816;-76
2023/09/22 13:44:10;;;;;;;2.30;1.15;;;21.00;98.20;;;;;;5051799;28;20465;-75
2023/09/22 13:46:56;;;;;;;2.40;0.77;;;21.10;97.20;;;;;;5023747;28;20044;-76
2023/09/22 13:49:42;;;;;;;1.73;0.70;;;21.40;97.50;;;;;;5004900;28;20053;-75
2023/09/22 13:52:28;;;;;;;3.38;1.00;;;21.40;97.00;;;;;;5021726;28;20496;-76
2023/09/22 13:55:15;;;;;;;2.58;0.90;;;21.30;96.80;;;;;;5035385;28;20056;-75
2023/09/22 13:58:01;;;;;;;1.90;0.90;;;21.00;97.10;;;;;;5016412;28;20041;-75
2023/09/22 14:00:47;;;;;;;1.63;0.88;;;20.70;97.20;;;;;;5023687;28;20041;-74
2023/09/22 14:03:34;;;;;;;3.85;1.33;;;20.10;96.80;;;;;;5024895;28;20041;-75
2023/09/22 14:06:23;;;;;;;2.97;1.00;;;20.10;97.80;;;;;;5010281;28;20041;-76
2023/09/22 14:09:09;;;;;;;2.05;0.77;;;20.00;97.10;;;;;;4977443;28;20467;-76
2023/09/22 14:11:56;;;;;;;2.03;1.10;;;19.70;97.10;;;;;;5001957;28;20045;-75
2023/09/22 14:14:42;;;;;;;2.75;1.02;;;19.60;97.80;;;;;;5003393;28;20033;-76
2023/09/22 14:17:28;;;;;;;2.65;1.00;;;19.60;97.80;;;;;;5036532;28;20811;-76
2023/09/22 14:20:14;;;;;;;2.67;1.25;;;19.60;97.90;;;;;;5022637;28;20045;-76
2023/09/22 14:23:01;;;;;;;3.83;1.17;;;19.60;97.90;;;;;;5031486;28;20033;-76
2023/09/22 14:25:47;;;;;;;1.92;1.00;;;19.50;97.60;;;;;;5041189;28;20037;-76
2023/09/22 14:28:34;;;;;;;4.63;1.10;;;19.50;98.00;;;;;;5021307;28;20076;-76
2023/09/22 14:31:20;;;;;;;3.20;1.10;;;19.40;98.40;;;;;;5036726;28;20045;-77